Time;durP1;ratioP1;P1;durP2;ratioP2;P2;SDS_P1;SDS_P2;PMS_P1;PMS_P2;Temp;Humidity;BMP_temperature;BMP_pressure;BME280_temperature;BME280_humidity;BME280_pressure;Samples;Min_cycle;Max_cycle;Signal;HPM_P1;HPM_P2
2021/04/09 00:02:15;;;;;;;6.53;4.40;;;;;;;1.55;73.20;101185.03;5051631;28;20075;-70
2021/04/09 00:04:42;;;;;;;6.30;3.80;;;;;;;1.45;73.90;101169.16;5062972;28;20040;-73
2021/04/09 00:07:08;;;;;;;5.47;4.27;;;;;;;1.51;73.31;101171.88;5051289;28;20048;-73
2021/04/09 00:09:35;;;;;;;6.33;5.23;;;;;;;1.45;73.71;101172.66;5067958;28;20416;-74
2021/04/09 00:12:01;;;;;;;6.03;3.77;;;;;;;1.48;73.60;101172.72;5067283;28;20058;-71
2021/04/09 00:14:28;;;;;;;6.10;4.43;;;;;;;1.46;73.17;101169.19;5056937;28;20032;-73
2021/04/09 00:16:54;;;;;;;6.53;4.27;;;;;;;1.42;73.73;101170.81;5050633;28;20478;-73
2021/04/09 00:19:23;;;;;;;9.67;4.17;;;;;;;1.40;73.89;101171.63;5066523;28;20058;-74
2021/04/09 00:21:50;;;;;;;5.80;3.90;;;;;;;1.33;74.50;101167.13;5064775;28;20075;-72
2021/04/09 00:24:16;;;;;;;5.90;4.47;;;;;;;1.33;73.84;101168.00;5049861;28;20036;-73
2021/04/09 00:26:42;;;;;;;5.03;3.83;;;;;;;1.38;73.77;101155.09;5044174;28;20565;-73
2021/04/09 00:29:08;;;;;;;7.80;4.90;;;;;;;1.38;73.48;101155.97;5085599;28;20043;-73
2021/04/09 00:31:35;;;;;;;8.30;4.23;;;;;;;1.39;72.99;101152.53;5085265;28;20066;-74
2021/04/09 00:34:02;;;;;;;8.90;4.10;;;;;;;1.35;73.56;101148.13;5047782;28;20043;-71
2021/04/09 00:36:28;;;;;;;7.60;5.00;;;;;;;1.38;73.01;101147.28;5066496;28;20059;-73
2021/04/09 00:38:55;;;;;;;6.77;4.10;;;;;;;1.42;72.33;101147.38;5053029;28;20105;-73
2021/04/09 00:41:27;;;;;;;5.87;4.53;;;;;;;1.40;72.52;101149.09;5043992;28;20043;-73
2021/04/09 00:43:53;;;;;;;5.60;4.43;;;;;;;1.40;72.80;101137.78;5053118;28;20047;-71
2021/04/09 00:46:21;;;;;;;5.93;4.60;;;;;;;1.31;73.59;101130.63;5081854;28;20056;-73
2021/04/09 00:48:47;;;;;;;6.23;4.77;;;;;;;1.24;73.57;101126.13;5040182;28;20052;-74
2021/04/09 00:51:13;;;;;;;6.67;5.20;;;;;;;1.26;73.09;101123.53;5071807;28;20043;-74
2021/04/09 00:53:42;;;;;;;7.00;5.03;;;;;;;1.19;73.35;101129.47;5071315;28;20513;-71
2021/04/09 00:56:08;;;;;;;8.07;4.93;;;;;;;1.27;72.97;101120.13;5052658;28;20047;-73
2021/04/09 00:58:36;;;;;;;8.23;4.90;;;;;;;1.22;73.39;101120.00;5052665;28;20109;-74
2021/04/09 01:01:02;;;;;;;9.67;4.77;;;;;;;1.20;73.23;101113.00;5068915;28;20480;-73
2021/04/09 01:03:28;;;;;;;6.93;4.73;;;;;;;1.24;72.90;101107.03;5070955;28;20546;-72
2021/04/09 01:05:55;;;;;;;7.73;4.70;;;;;;;1.15;73.26;101104.19;5069042;28;20093;-73
2021/04/09 01:08:22;;;;;;;5.87;4.67;;;;;;;1.12;73.09;101100.69;5051020;28;20536;-72
2021/04/09 01:10:48;;;;;;;6.20;4.53;;;;;;;1.07;73.23;101091.88;5069299;28;20090;-72
2021/04/09 01:13:15;;;;;;;8.57;5.07;;;;;;;1.02;73.64;101087.41;5070087;28;20043;-72
2021/04/09 01:15:41;;;;;;;7.00;4.90;;;;;;;0.93;73.69;101080.25;5033738;28;20047;-74
2021/04/09 01:18:17;;;;;;;8.57;5.00;;;;;;;0.88;73.72;101078.38;5063647;28;20044;-75
2021/04/09 01:21:16;;;;;;;7.20;4.50;;;;;;;0.82;73.80;101074.75;5037348;28;20040;-75
2021/04/09 01:24:02;;;;;;;6.10;4.73;;;;;;;0.75;74.46;101069.38;5070655;28;20526;-74
2021/04/09 01:26:48;;;;;;;7.73;4.10;;;;;;;0.73;73.82;101071.06;5070678;28;20044;-75
2021/04/09 01:29:27;;;;;;;8.40;4.87;;;;;;;0.76;74.08;101063.34;5036609;28;20040;-74
2021/04/09 01:31:59;;;;;;;6.70;4.70;;;;;;;0.61;74.10;101065.56;5046858;28;20044;-76
2021/04/09 01:34:30;;;;;;;6.00;5.00;;;;;;;0.53;74.39;101052.34;5059574;28;20047;-75
2021/04/09 01:37:01;;;;;;;9.10;5.30;;;;;;;0.50;74.75;101045.31;5053297;28;20040;-74
2021/04/09 01:39:40;;;;;;;7.77;4.77;;;;;;;0.50;74.56;101045.31;5087339;28;20062;-74
2021/04/09 01:42:09;;;;;;;6.80;4.83;;;;;;;0.57;74.93;101029.06;5052274;28;20612;-74
2021/04/09 01:44:38;;;;;;;6.23;4.80;;;;;;;0.51;75.06;101033.25;5061447;28;20032;-74
2021/04/09 01:47:05;;;;;;;8.57;4.73;;;;;;;0.46;74.61;101033.09;5053639;28;20040;-74
2021/04/09 01:49:33;;;;;;;7.73;4.40;;;;;;;0.46;74.62;101016.63;5049290;28;20043;-74
2021/04/09 01:52:00;;;;;;;7.80;4.87;;;;;;;0.39;75.09;101019.91;5043495;28;20523;-76
2021/04/09 01:54:28;;;;;;;7.47;4.53;;;;;;;0.46;75.13;101017.50;5056938;28;20594;-74
2021/04/09 01:56:54;;;;;;;7.83;5.03;;;;;;;0.41;75.40;101018.22;5069604;28;20089;-74
2021/04/09 01:59:20;;;;;;;9.77;4.57;;;;;;;0.46;75.12;101009.72;5051626;28;20047;-74
2021/04/09 02:02:07;;;;;;;7.47;4.47;;;;;;;0.46;74.50;101007.09;5053040;28;20055;-74
2021/04/09 02:04:34;;;;;;;8.20;4.80;;;;;;;0.48;74.44;101014.94;5061262;28;20030;-74
2021/04/09 02:07:01;;;;;;;7.97;4.23;;;;;;;0.40;74.42;100993.94;5048912;28;20040;-74
2021/04/09 02:09:30;;;;;;;5.40;4.30;;;;;;;0.39;74.92;101005.19;5035475;28;20036;-74
2021/04/09 02:11:56;;;;;;;8.43;5.57;;;;;;;0.43;74.51;101000.97;5052399;28;20044;-74
2021/04/09 02:14:23;;;;;;;7.97;4.63;;;;;;;0.40;75.01;100996.53;5053691;28;20047;-76
2021/04/09 02:16:50;;;;;;;7.93;4.10;;;;;;;0.42;75.27;100994.88;5069882;28;20514;-76
2021/04/09 02:19:16;;;;;;;9.10;4.70;;;;;;;0.37;74.84;100996.47;5035991;28;20074;-76
2021/04/09 02:21:42;;;;;;;7.07;3.70;;;;;;;0.30;75.35;100983.28;5052176;28;20062;-75
2021/04/09 02:24:09;;;;;;;5.63;4.03;;;;;;;0.31;74.92;100988.50;5051736;28;20075;-76
2021/04/09 02:26:36;;;;;;;8.43;4.60;;;;;;;0.38;74.68;100982.63;5068746;28;20036;-76
2021/04/09 02:29:03;;;;;;;5.73;3.90;;;;;;;0.42;74.83;100986.19;5050927;28;20036;-76
2021/04/09 02:31:29;;;;;;;7.77;4.97;;;;;;;0.51;74.65;100973.44;5052961;28;20464;-76
2021/04/09 02:33:55;;;;;;;9.30;4.60;;;;;;;0.56;74.45;100972.69;5050488;28;21303;-76
2021/04/09 02:36:25;;;;;;;8.10;4.43;;;;;;;0.56;74.53;100972.69;5069055;28;20135;-76
2021/04/09 02:39:00;;;;;;;6.27;4.30;;;;;;;0.62;74.03;100968.50;5069263;28;20083;-76
2021/04/09 02:41:28;;;;;;;5.63;4.60;;;;;;;0.63;73.85;100957.25;5043190;28;20105;-76
2021/04/09 02:43:55;;;;;;;9.47;5.03;;;;;;;0.70;73.51;100965.25;5068051;28;20043;-76
2021/04/09 02:46:30;;;;;;;7.63;3.83;;;;;;;0.65;74.30;100952.97;5053133;28;20411;-76
2021/04/09 02:49:01;;;;;;;7.00;4.93;;;;;;;0.67;73.59;100959.06;5068093;28;20032;-76
2021/04/09 02:51:28;;;;;;;7.13;4.73;;;;;;;0.70;73.43;100953.97;5067978;28;20036;-76
2021/04/09 02:53:56;;;;;;;10.33;4.43;;;;;;;0.73;73.60;100962.72;5069609;28;20037;-76
2021/04/09 02:56:24;;;;;;;6.60;4.47;;;;;;;0.80;72.81;100943.81;5042273;28;20040;-76
2021/04/09 02:58:51;;;;;;;6.50;3.93;;;;;;;0.87;72.32;100941.38;5068822;28;20297;-76
2021/04/09 03:01:21;;;;;;;7.30;4.30;;;;;;;0.89;72.54;100939.66;5050616;28;20402;-76
2021/04/09 03:03:48;;;;;;;9.40;5.40;;;;;;;0.84;72.74;100943.06;5067197;28;20115;-76
2021/04/09 03:06:14;;;;;;;7.30;4.20;;;;;;;0.88;72.30;100938.78;5069449;28;20500;-76
2021/04/09 03:08:40;;;;;;;7.50;4.30;;;;;;;0.86;73.06;100934.41;5050804;28;20047;-76
2021/04/09 03:11:07;;;;;;;9.70;4.33;;;;;;;0.79;73.07;100933.38;5051452;28;20044;-75
2021/04/09 03:13:33;;;;;;;7.47;6.53;;;;;;;0.82;72.77;100938.63;5086084;28;20043;-76
2021/04/09 03:16:00;;;;;;;7.30;4.43;;;;;;;0.80;72.77;100928.22;5087504;28;20105;-75
2021/04/09 03:18:33;;;;;;;8.20;4.37;;;;;;;0.75;72.93;100931.53;5068825;28;20093;-76
2021/04/09 03:21:00;;;;;;;7.10;4.60;;;;;;;0.75;73.73;100928.94;5051991;28;20113;-77
2021/04/09 03:23:26;;;;;;;7.07;4.77;;;;;;;0.77;72.96;100924.66;5069053;28;20484;-75
2021/04/09 03:25:52;;;;;;;7.23;5.03;;;;;;;0.73;73.78;100905.50;5037145;28;20044;-75
2021/04/09 03:28:18;;;;;;;7.47;4.60;;;;;;;0.68;73.26;100908.88;5052387;28;20630;-76
2021/04/09 03:30:50;;;;;;;8.20;5.00;;;;;;;0.65;74.10;100909.66;5068444;28;20117;-77
2021/04/09 03:33:22;;;;;;;7.87;4.50;;;;;;;0.65;74.28;100909.66;5070626;28;20071;-75
2021/04/09 03:35:48;;;;;;;9.90;5.13;;;;;;;0.57;74.16;100909.47;5049464;28;20040;-77
2021/04/09 03:38:17;;;;;;;6.07;4.90;;;;;;;0.61;74.33;100902.63;5051398;28;20284;-75
2021/04/09 03:40:43;;;;;;;7.40;4.60;;;;;;;0.59;74.35;100906.00;5066669;28;20052;-74
2021/04/09 03:43:10;;;;;;;7.10;4.80;;;;;;;0.66;74.14;100901.00;5068897;28;20450;-74
2021/04/09 03:45:38;;;;;;;7.47;4.67;;;;;;;0.70;73.30;100904.56;5047952;28;20722;-74
2021/04/09 03:48:04;;;;;;;8.23;4.63;;;;;;;0.70;73.39;100886.38;5054352;28;20036;-74
2021/04/09 03:50:31;;;;;;;8.33;4.77;;;;;;;0.64;73.99;100884.50;5080687;28;20043;-74
2021/04/09 03:52:57;;;;;;;10.23;5.33;;;;;;;0.65;74.42;100878.44;5067542;28;20044;-74
2021/04/09 03:55:23;;;;;;;6.77;4.27;;;;;;;0.68;73.64;100882.84;5050873;28;20040;-74
2021/04/09 03:57:54;;;;;;;6.43;4.50;;;;;;;0.53;74.01;100873.84;5067918;28;20047;-74
2021/04/09 04:00:20;;;;;;;7.27;4.63;;;;;;;0.45;74.64;100866.72;5066715;28;20048;-74
2021/04/09 04:02:46;;;;;;;11.70;5.30;;;;;;;0.41;74.97;100864.88;5051095;28;20169;-74
2021/04/09 04:05:14;;;;;;;7.50;5.00;;;;;;;0.49;74.36;100861.59;5062852;28;20447;-74
2021/04/09 04:07:40;;;;;;;10.77;5.47;;;;;;;0.49;74.69;100858.13;5068463;28;20100;-74
2021/04/09 04:10:07;;;;;;;7.87;5.00;;;;;;;0.48;74.66;100859.84;5049779;28;20036;-74
2021/04/09 04:12:33;;;;;;;9.10;5.10;;;;;;;0.38;74.91;100852.69;5087263;28;20036;-74
2021/04/09 04:14:59;;;;;;;8.20;4.90;;;;;;;0.44;75.05;100857.16;5055262;28;20040;-74
2021/04/09 04:17:26;;;;;;;9.77;4.83;;;;;;;0.34;74.89;100856.06;5071446;28;20038;-74
2021/04/09 04:19:52;;;;;;;8.53;4.60;;;;;;;0.25;75.37;100845.44;5055128;28;20497;-74
2021/04/09 04:22:18;;;;;;;6.90;4.97;;;;;;;0.26;75.32;100842.91;5088893;28;20043;-74
2021/04/09 04:24:44;;;;;;;7.77;4.87;;;;;;;0.30;75.45;100838.63;5047690;28;20041;-74
2021/04/09 04:27:10;;;;;;;10.83;5.10;;;;;;;0.25;75.76;100833.34;5088268;28;20040;-74
2021/04/09 04:29:37;;;;;;;8.97;5.37;;;;;;;0.27;75.39;100841.16;5050536;28;20041;-74
2021/04/09 04:32:03;;;;;;;7.77;4.60;;;;;;;0.30;75.50;100846.44;5088997;28;20052;-74
2021/04/09 04:34:30;;;;;;;8.57;4.87;;;;;;;0.42;74.77;100845.81;5086659;28;20130;-74
2021/04/09 04:36:56;;;;;;;10.00;5.20;;;;;;;0.41;75.07;100847.56;5067973;28;20103;-74
2021/04/09 04:39:23;;;;;;;7.73;4.70;;;;;;;0.46;75.09;100843.34;5068376;28;20056;-74
2021/04/09 04:41:49;;;;;;;8.13;4.80;;;;;;;0.50;74.81;100852.09;5068434;28;20207;-74
2021/04/09 04:44:15;;;;;;;8.87;5.17;;;;;;;0.55;74.40;100833.16;5083238;28;20028;-74
2021/04/09 04:46:41;;;;;;;9.67;4.70;;;;;;;0.56;74.06;100840.13;5078556;28;20038;-74
2021/04/09 04:49:07;;;;;;;7.13;4.63;;;;;;;0.56;74.26;100837.50;5046232;28;20170;-74
2021/04/09 04:51:33;;;;;;;9.73;5.47;;;;;;;0.50;74.86;100837.38;5046701;28;20077;-74
2021/04/09 04:53:59;;;;;;;9.93;4.80;;;;;;;0.55;74.55;100838.38;5069967;28;20522;-74
2021/04/09 04:56:26;;;;;;;9.07;5.13;;;;;;;0.61;74.53;100839.34;5069831;28;20685;-74
2021/04/09 04:58:52;;;;;;;8.03;5.03;;;;;;;0.68;74.04;100839.53;5069031;28;20109;-74
2021/04/09 05:01:18;;;;;;;7.07;4.57;;;;;;;0.81;72.52;100843.25;5071069;28;20548;-74
2021/04/09 05:03:44;;;;;;;11.07;4.93;;;;;;;0.86;72.52;100835.56;5067521;28;20039;-74
2021/04/09 05:06:25;;;;;;;7.87;4.83;;;;;;;0.94;72.44;100828.81;5084115;22;20071;-93
2021/04/09 05:09:13;;;;;;;8.10;5.00;;;;;;;0.91;72.54;100827.00;5025253;28;20103;-94
2021/04/09 05:11:40;;;;;;;8.77;4.97;;;;;;;0.99;71.88;100820.25;5026192;28;20128;-94
2021/04/09 05:14:06;;;;;;;7.50;5.17;;;;;;;1.04;72.47;100826.44;5008773;28;20037;-93
2021/04/09 05:16:32;;;;;;;9.13;5.40;;;;;;;1.09;71.84;100817.00;5011097;28;20041;-92
2021/04/09 05:18:59;;;;;;;7.50;4.27;;;;;;;1.20;71.68;100816.34;5011482;28;20049;-93
2021/04/09 05:21:26;;;;;;;9.60;6.13;;;;;;;1.25;71.32;100810.34;5030733;28;20071;-92
2021/04/09 05:24:07;;;;;;;8.27;4.77;;;;;;;1.36;70.20;100798.44;4996645;28;20041;-93
2021/04/09 05:26:44;;;;;;;8.60;4.53;;;;;;;1.47;70.31;100805.56;5022579;28;20111;-93
2021/04/09 05:29:12;;;;;;;9.57;4.67;;;;;;;1.48;70.33;100803.00;5020432;28;20116;-94
2021/04/09 05:31:39;;;;;;;9.27;4.80;;;;;;;1.53;69.90;100796.16;5006189;28;20075;-92
2021/04/09 05:34:06;;;;;;;9.10;5.17;;;;;;;1.52;69.78;100797.00;5027119;28;20034;-92
2021/04/09 05:36:32;;;;;;;7.00;4.73;;;;;;;1.56;69.67;100801.41;5016623;28;20060;-94
2021/04/09 05:39:08;;;;;;;9.73;4.90;;;;;;;1.66;69.46;100798.13;5001561;28;20135;-93
2021/04/09 05:41:38;;;;;;;9.10;5.03;;;;;;;1.73;69.20;100803.44;5016474;28;20048;-93
2021/04/09 05:44:05;;;;;;;9.27;4.87;;;;;;;1.74;68.34;100800.84;5008423;28;20059;-93
2021/04/09 05:46:31;;;;;;;6.97;4.90;;;;;;;1.82;68.86;100801.88;5009876;28;20049;-94
2021/04/09 05:49:04;;;;;;;8.80;4.73;;;;;;;1.92;68.06;100800.28;5010998;28;20045;-93
2021/04/09 05:51:31;;;;;;;8.63;5.50;;;;;;;2.02;67.61;100802.22;5004279;28;20052;-92
2021/04/09 05:54:03;;;;;;;7.87;4.90;;;;;;;2.06;67.51;100795.31;5026667;28;20046;-93
2021/04/09 05:56:33;;;;;;;7.30;4.23;;;;;;;2.04;67.63;100797.03;4996299;28;20041;-93
2021/04/09 05:59:01;;;;;;;7.73;4.57;;;;;;;2.05;67.76;100797.03;5015003;28;20045;-93
2021/04/09 06:01:28;;;;;;;10.47;6.17;;;;;;;2.16;67.12;100792.88;5010759;28;20049;-93
2021/04/09 06:03:56;;;;;;;8.40;5.00;;;;;;;2.23;67.43;100788.63;5003075;28;20523;-94
2021/04/09 06:06:22;;;;;;;7.00;4.60;;;;;;;2.34;65.87;100796.63;5012708;28;20040;-92
2021/04/09 06:08:49;;;;;;;8.03;5.57;;;;;;;2.68;66.20;100795.38;5008456;28;20083;-94
2021/04/09 06:11:15;;;;;;;9.20;6.00;;;;;;;2.95;64.44;100784.44;5000013;28;20456;-94
2021/04/09 06:13:43;;;;;;;11.10;4.90;;;;;;;3.14;63.15;100781.19;5009726;28;20049;-94
2021/04/09 06:16:09;;;;;;;7.07;4.87;;;;;;;3.17;63.19;100781.19;5021004;28;20041;-93
2021/04/09 06:18:35;;;;;;;9.70;4.40;;;;;;;3.49;62.82;100775.47;5015706;28;20055;-94
2021/04/09 06:21:02;;;;;;;7.73;5.27;;;;;;;3.59;61.85;100780.78;5028141;28;20099;-94
2021/04/09 06:23:28;;;;;;;9.60;4.60;;;;;;;3.53;61.81;100779.84;4997655;28;20049;-94
2021/04/09 06:25:55;;;;;;;8.07;5.77;;;;;;;3.48;61.55;100781.53;5026751;28;20055;-95
2021/04/09 06:28:21;;;;;;;9.33;5.90;;;;;;;3.48;62.19;100782.41;5020572;28;20112;-94
2021/04/09 06:30:48;;;;;;;12.77;6.80;;;;;;;3.36;61.83;100777.97;5013741;28;20037;-91
2021/04/09 06:33:18;;;;;;;8.97;5.40;;;;;;;3.45;61.96;100768.44;5021788;28;20034;-93
2021/04/09 06:35:50;;;;;;;8.90;5.77;;;;;;;3.64;61.39;100770.38;5018213;28;20053;-93
2021/04/09 06:38:17;;;;;;;9.30;5.70;;;;;;;4.23;60.82;100775.25;5025311;28;20057;-93
2021/04/09 06:40:45;;;;;;;6.53;4.80;;;;;;;5.45;58.01;100764.44;5001838;28;20088;-92
2021/04/09 06:43:11;;;;;;;9.30;5.10;;;;;;;6.13;54.04;100764.50;5008288;28;20056;-91
2021/04/09 06:45:39;;;;;;;7.70;5.27;;;;;;;6.67;52.72;100767.94;5003010;28;20041;-93
2021/04/09 06:48:14;;;;;;;10.40;5.70;;;;;;;6.98;51.27;100767.84;5011832;28;20087;-92
2021/04/09 06:50:40;;;;;;;7.40;4.77;;;;;;;7.01;51.02;100757.31;4991824;28;20041;-91
2021/04/09 06:53:07;;;;;;;9.00;5.20;;;;;;;7.49;49.78;100755.31;5000751;28;20577;-91
2021/04/09 06:55:33;;;;;;;7.23;5.43;;;;;;;8.26;47.49;100756.44;5003366;28;20048;-93
2021/04/09 06:58:01;;;;;;;6.03;4.80;;;;;;;8.50;47.66;100742.19;5005898;28;20037;-91
2021/04/09 07:00:32;;;;;;;12.55;6.50;;;;;;;8.45;46.83;100736.97;5003885;28;20037;-93
2021/04/09 07:02:58;;;;;;;6.00;5.03;;;;;;;8.21;46.83;100749.47;5034049;28;20051;-93
2021/04/09 07:05:26;;;;;;;7.28;5.72;;;;;;;8.80;47.03;100725.16;5021628;28;20240;-90
2021/04/09 07:07:54;;;;;;;8.20;4.93;;;;;;;8.86;46.09;100734.75;5025743;28;20032;-91
2021/04/09 07:10:20;;;;;;;6.95;5.15;;;;;;;9.30;44.78;100732.41;5000152;28;20144;-93
2021/04/09 07:13:01;;;;;;;8.50;5.88;;;;;;;9.30;44.30;100739.44;5004516;28;20049;-91
2021/04/09 07:15:37;;;;;;;9.10;5.60;;;;;;;9.05;44.14;100732.75;5018699;28;20048;-93
2021/04/09 07:18:06;;;;;;;11.38;6.88;;;;;;;9.65;43.61;100738.03;4990678;28;20069;-91
2021/04/09 07:20:38;;;;;;;10.63;5.97;;;;;;;10.07;43.63;100734.69;5001434;28;20140;-94
2021/04/09 07:23:07;;;;;;;7.88;5.30;;;;;;;9.84;43.24;100726.31;5012667;28;20148;-91
2021/04/09 07:25:39;;;;;;;8.80;5.43;;;;;;;10.39;42.70;100714.81;5005455;28;20064;-91
2021/04/09 07:28:16;;;;;;;6.00;5.25;;;;;;;10.34;41.86;100716.66;5002597;28;20064;-91
2021/04/09 07:30:50;;;;;;;10.05;5.53;;;;;;;9.65;42.26;100716.94;5016179;28;20052;-91
2021/04/09 07:33:25;;;;;;;9.67;6.57;;;;;;;9.02;44.63;100709.97;5004460;28;20076;-91
2021/04/09 07:35:59;;;;;;;7.50;5.57;;;;;;;9.06;46.40;100710.78;5008518;28;20445;-93
2021/04/09 07:38:33;;;;;;;9.05;5.68;;;;;;;9.82;43.48;100709.63;5010846;28;20045;-93
2021/04/09 07:41:02;;;;;;;9.25;6.20;;;;;;;9.39;43.56;100712.94;5008551;28;20045;-94
2021/04/09 07:43:29;;;;;;;9.23;5.20;;;;;;;9.67;42.86;100715.13;5004717;28;20055;-91
2021/04/09 07:45:59;;;;;;;9.82;5.85;;;;;;;9.94;42.19;100708.56;5001953;28;20043;-93
2021/04/09 07:49:02;;;;;;;9.27;6.03;;;;;;;10.40;41.62;100708.63;5017512;28;20613;-93
2021/04/09 07:51:28;;;;;;;11.05;6.53;;;;;;;10.71;41.80;100707.13;5004158;28;20063;-94
2021/04/09 07:54:07;;;;;;;8.57;5.60;;;;;;;10.56;42.08;100717.13;5012656;28;20057;-95
2021/04/09 07:56:45;;;;;;;6.85;5.10;;;;;;;11.28;40.79;100709.44;5009133;28;20472;-93
2021/04/09 07:59:12;;;;;;;7.60;5.65;;;;;;;11.00;40.89;100706.50;5007777;28;20049;-92
2021/04/09 08:01:48;;;;;;;12.18;6.55;;;;;;;10.83;40.97;100711.28;5011763;28;20130;-93
2021/04/09 08:04:14;;;;;;;8.05;6.05;;;;;;;10.82;40.70;100708.69;5008658;28;20588;-93
2021/04/09 08:06:41;;;;;;;9.38;5.85;;;;;;;10.65;41.79;100706.38;5021704;28;20045;-93
2021/04/09 08:09:07;;;;;;;8.57;5.30;;;;;;;10.37;41.70;100703.41;5007758;28;20049;-93
2021/04/09 08:11:38;;;;;;;7.03;5.40;;;;;;;10.03;42.77;100704.00;5008176;28;20083;-93
2021/04/09 08:14:10;;;;;;;8.93;6.10;;;;;;;10.00;43.58;100704.03;4990811;28;20053;-92
2021/04/09 08:16:43;;;;;;;8.45;5.68;;;;;;;9.63;44.21;100700.28;4992448;28;20064;-92
2021/04/09 08:19:21;;;;;;;7.10;5.47;;;;;;;9.99;43.93;100696.13;4997133;28;20033;-92
2021/04/09 08:21:50;;;;;;;9.50;6.15;;;;;;;9.38;44.12;100697.16;5002084;28;20508;-93
2021/04/09 08:24:25;;;;;;;9.45;6.57;;;;;;;9.22;44.60;100697.38;5017449;28;20124;-93
2021/04/09 08:26:51;;;;;;;8.73;5.82;;;;;;;9.03;45.02;100696.75;5007222;28;20060;-92
2021/04/09 08:29:22;;;;;;;8.30;5.63;;;;;;;8.91;45.34;100691.66;5006579;28;20041;-93
2021/04/09 08:31:50;;;;;;;9.63;6.00;;;;;;;9.06;44.90;100687.06;5005713;28;20045;-93
2021/04/09 08:34:20;;;;;;;10.27;6.10;;;;;;;9.37;44.93;100683.09;4996896;28;20048;-93
2021/04/09 08:36:48;;;;;;;9.20;6.00;;;;;;;10.02;44.13;100667.94;5009691;28;20053;-93
2021/04/09 08:39:28;;;;;;;7.72;5.80;;;;;;;10.91;43.83;100667.06;5014491;28;20038;-93
2021/04/09 08:41:56;;;;;;;8.68;6.20;;;;;;;11.16;41.39;100663.88;5004448;28;20049;-93
2021/04/09 08:44:23;;;;;;;9.55;6.07;;;;;;;11.21;41.34;100678.75;5005260;28;20052;-94
2021/04/09 08:46:49;;;;;;;12.15;6.20;;;;;;;11.86;40.39;100661.34;5004384;28;20076;-93
2021/04/09 08:49:18;;;;;;;11.05;6.40;;;;;;;12.25;38.28;100668.22;5022236;28;20049;-93
2021/04/09 08:51:46;;;;;;;12.27;7.20;;;;;;;11.82;40.11;100673.78;5013833;28;20536;-93
2021/04/09 08:54:28;;;;;;;13.20;6.65;;;;;;;11.96;39.64;100663.72;5007455;28;20068;-92
2021/04/09 08:57:02;;;;;;;7.60;6.05;;;;;;;12.28;39.36;100664.66;4992091;28;20067;-93
2021/04/09 08:59:37;;;;;;;9.95;6.78;;;;;;;10.92;41.31;100675.84;5008309;28;20049;-93
2021/04/09 09:02:24;;;;;;;12.68;6.88;;;;;;;10.96;41.88;100667.84;5007093;28;20511;-93
2021/04/09 09:05:01;;;;;;;12.88;7.53;;;;;;;10.85;41.58;100676.91;5013303;28;20115;-93
2021/04/09 09:07:51;;;;;;;9.75;7.15;;;;;;;10.96;42.52;100690.75;5031687;28;20064;-93
2021/04/09 09:10:30;;;;;;;10.40;7.00;;;;;;;10.41;42.46;100678.66;5052816;28;20041;-93
2021/04/09 09:13:12;;;;;;;10.65;7.88;;;;;;;10.04;43.71;100657.34;5024855;28;20048;-92
2021/04/09 09:15:41;;;;;;;10.60;6.57;;;;;;;10.51;42.63;100658.22;5028063;28;20055;-92
2021/04/09 09:18:23;;;;;;;10.07;7.55;;;;;;;10.97;42.06;100656.38;5013994;28;20080;-93
2021/04/09 09:21:01;;;;;;;10.65;7.97;;;;;;;11.68;41.34;100644.97;5022952;28;20406;-93
2021/04/09 09:23:51;;;;;;;10.63;7.47;;;;;;;12.33;39.29;100630.94;5023914;28;20032;-92
2021/04/09 09:26:32;;;;;;;12.02;8.20;;;;;;;12.90;37.99;100627.50;5005236;28;20084;-92
2021/04/09 09:29:13;;;;;;;11.38;8.23;;;;;;;13.76;36.74;100625.63;5006546;28;20061;-92
2021/04/09 09:31:41;;;;;;;9.98;7.63;;;;;;;14.17;36.79;100618.00;5014556;28;20046;-93
2021/04/09 09:34:17;;;;;;;8.50;6.65;;;;;;;14.73;36.43;100628.38;5020136;28;20479;-93
2021/04/09 09:37:09;;;;;;;9.75;7.43;;;;;;;13.16;36.67;100632.84;5016812;28;20424;-93
2021/04/09 09:40:08;;;;;;;9.52;7.72;;;;;;;13.55;37.89;100629.00;5011338;28;20049;-93
2021/04/09 09:42:36;;;;;;;12.63;8.70;;;;;;;13.30;37.15;100623.63;5006296;28;20068;-92
2021/04/09 09:45:07;;;;;;;8.52;7.00;;;;;;;14.68;37.76;100603.72;5011751;28;20046;-93
2021/04/09 09:47:41;;;;;;;11.05;7.95;;;;;;;14.87;34.69;100604.75;4994138;28;20045;-93
2021/04/09 09:50:19;;;;;;;13.20;8.40;;;;;;;14.60;35.41;100609.34;5003559;28;20052;-92
2021/04/09 09:52:54;;;;;;;10.52;7.45;;;;;;;14.03;36.09;100598.09;5004000;28;20045;-93
2021/04/09 09:55:41;;;;;;;10.63;7.80;;;;;;;13.72;37.07;100598.31;5008409;28;20087;-92
2021/04/09 09:58:26;;;;;;;9.77;7.60;;;;;;;14.46;35.84;100593.03;5000608;28;20049;-93
2021/04/09 10:00:57;;;;;;;11.05;7.88;;;;;;;14.61;35.49;100605.75;4997288;28;20046;-92
2021/04/09 10:03:29;;;;;;;13.85;8.27;;;;;;;15.30;34.81;100573.75;5023838;28;20048;-92
2021/04/09 10:06:00;;;;;;;9.48;6.45;;;;;;;15.36;35.89;100573.50;5006931;28;20052;-93
2021/04/09 10:08:31;;;;;;;9.00;7.32;;;;;;;15.67;34.23;100579.31;5015356;28;20052;-90
2021/04/09 10:11:02;;;;;;;10.35;6.78;;;;;;;16.30;33.74;100579.19;4989848;28;20041;-93
2021/04/09 10:13:34;;;;;;;10.43;7.30;;;;;;;16.68;33.04;100574.75;5010229;28;20041;-89
2021/04/09 10:16:06;;;;;;;11.45;8.50;;;;;;;16.22;33.23;100571.53;5014293;28;20104;-93
2021/04/09 10:18:34;;;;;;;9.40;7.20;;;;;;;15.68;34.65;100569.50;5006732;28;20064;-92
2021/04/09 10:21:27;;;;;;;8.88;6.85;;;;;;;15.65;34.04;100591.81;5007328;28;20041;-93
2021/04/09 10:24:13;;;;;;;9.13;6.97;;;;;;;15.75;34.68;100592.28;5024576;28;20049;-92
2021/04/09 10:26:41;;;;;;;8.55;6.97;;;;;;;14.60;35.97;100585.41;5018960;28;20045;-93
2021/04/09 10:29:21;;;;;;;10.38;7.80;;;;;;;13.78;36.81;100587.47;5015737;28;20049;-92
2021/04/09 10:31:57;;;;;;;9.48;6.95;;;;;;;13.67;37.46;100591.41;4994326;28;20048;-93
2021/04/09 10:34:25;;;;;;;13.77;7.47;;;;;;;13.62;38.17;100580.97;5025847;28;20045;-92
2021/04/09 10:36:54;;;;;;;9.77;7.53;;;;;;;13.01;37.95;100598.84;5011254;28;20060;-92
2021/04/09 10:39:22;;;;;;;10.57;7.07;;;;;;;12.55;40.29;100602.91;4991460;28;20065;-93
2021/04/09 10:41:51;;;;;;;9.45;6.57;;;;;;;12.08;41.04;100580.41;5012113;28;20063;-94
2021/04/09 10:44:24;;;;;;;14.18;6.85;;;;;;;12.47;40.92;100599.63;4991278;28;20041;-90
2021/04/09 10:47:01;;;;;;;11.27;7.22;;;;;;;13.43;39.43;100572.75;5007453;28;20122;-92
2021/04/09 10:49:35;;;;;;;13.77;10.95;;;;;;;14.82;37.86;100582.78;5017713;28;20090;-91
2021/04/09 10:52:15;;;;;;;10.75;7.07;;;;;;;15.21;35.76;100575.00;4991904;28;20646;-93
2021/04/09 10:54:46;;;;;;;7.53;5.88;;;;;;;14.31;36.76;100570.53;4995018;28;20088;-92
2021/04/09 10:57:23;;;;;;;9.73;5.90;;;;;;;14.51;36.62;100573.31;5007869;28;20041;-92
2021/04/09 10:59:52;;;;;;;7.65;6.40;;;;;;;15.37;36.11;100557.47;4998585;28;20052;-93
2021/04/09 11:02:25;;;;;;;8.85;6.20;;;;;;;15.66;34.50;100579.38;5006918;28;20047;-92
2021/04/09 11:04:58;;;;;;;9.73;6.30;;;;;;;15.31;34.99;100559.53;5002491;28;20064;-92
2021/04/09 11:07:45;;;;;;;8.55;6.38;;;;;;;15.71;34.28;100558.72;5005664;28;20056;-93
2021/04/09 11:10:36;;;;;;;8.60;5.82;;;;;;;15.66;34.79;100563.41;5003367;28;20056;-92
2021/04/09 11:13:09;;;;;;;9.65;6.10;;;;;;;15.77;34.41;100548.66;5012774;28;20048;-93
2021/04/09 11:15:46;;;;;;;7.80;6.00;;;;;;;16.15;33.57;100551.44;5001896;28;20047;-92
2021/04/09 11:18:16;;;;;;;6.85;6.03;;;;;;;15.36;34.38;100553.06;4985486;28;20345;-92
2021/04/09 11:20:46;;;;;;;8.00;5.85;;;;;;;15.14;35.44;100552.25;5012433;28;20053;-92
2021/04/09 11:23:14;;;;;;;8.52;5.25;;;;;;;15.19;35.37;100551.09;5000915;28;20041;-92
2021/04/09 11:25:45;;;;;;;9.70;4.78;;;;;;;16.33;34.71;100541.75;5000758;28;20044;-92
2021/04/09 11:28:34;;;;;;;9.02;5.13;;;;;;;17.07;35.67;100542.69;4999788;28;20060;-92
2021/04/09 11:31:05;;;;;;;7.32;4.93;;;;;;;16.76;32.90;100521.94;4988836;28;20072;-93
2021/04/09 11:33:39;;;;;;;6.13;5.32;;;;;;;16.78;32.92;100533.41;4986368;28;20366;-92
2021/04/09 11:36:15;;;;;;;;;;;;;;;16.85;33.14;100540.19;4989268;28;20057;-92
2021/04/09 11:38:47;;;;;;;5.78;4.15;;;;;;;17.17;32.29;100538.59;5012470;28;19920;-92
2021/04/09 11:41:26;;;;;;;7.80;5.15;;;;;;;15.55;34.91;100537.16;5005945;28;20140;-92
2021/04/09 11:44:38;;;;;;;;;;;;;;;;;;;;;
2021/04/09 11:47:47;;;;;;;5.68;4.68;;;;;;;15.11;35.65;100521.28;5032949;28;20072;-92
2021/04/09 11:50:38;;;;;;;6.93;4.57;;;;;;;15.12;36.00;100527.47;5036600;28;20049;-93